This is the latest recevied weather packets stored in our database for station/object KG4LKY-5. If no packets are shown the sender has not sent any weather packets the latest 10 day(s).
| Time | Temp. | Humidity | Pressure | Rain* | Wind** | Luminosity | Snow |
|---|---|---|---|---|---|---|---|
| 1777943788 | 18.89° C | 56% | 1011.1 hPa | 1.78 mm | - | - | - |
| 1777943187 | 18.33° C | 56% | 1011 hPa | 1.78 mm | - | - | - |
| 1777942887 | 19.44° C | 52% | 1011 hPa | 1.78 mm | - | - | - |
| 1777942587 | 18.89° C | 49% | 1011 hPa | 1.78 mm | - | - | - |
| 1777942286 | 18.89° C | 45% | 1010.9 hPa | 1.78 mm | - | - | - |
| 1777941986 | 18.89° C | 44% | 1010.9 hPa | 1.78 mm | - | - | - |
| 1777941686 | 19.44° C | 40% | 1010.9 hPa | 1.78 mm | - | - | - |
| 1777941385 | 20° C | 36% | 1010.8 hPa | 1.78 mm | - | - | - |
| 1777941085 | 18.89° C | 42% | 1010.8 hPa | 1.78 mm | - | - | - |
| 1777940785 | 19.44° C | 40% | 1010.6 hPa | 1.78 mm | - | - | - |
| 1777940485 | 20° C | 41% | 1010.6 hPa | 1.78 mm | - | - | - |
| 1777940184 | 20° C | 38% | 1010.8 hPa | 1.78 mm | - | - | - |
| 1777939884 | 20° C | 40% | 1010.8 hPa | 1.78 mm | - | - | - |
| 1777939584 | 20.56° C | 34% | 1010.8 hPa | 1.78 mm | - | - | - |
| 1777939283 | 21.67° C | 29% | 1010.8 hPa | 1.78 mm | - | - | - |
| 1777938983 | 22.22° C | 27% | 1010.8 hPa | 1.78 mm | - | - | - |
| 1777938683 | 22.22° C | 27% | 1010.8 hPa | 1.78 mm | - | - | - |
| 1777938383 | 22.22° C | 24% | 1010.6 hPa | 1.78 mm | - | - | - |
| 1777938082 | 22.22° C | 27% | 1010.6 hPa | 1.78 mm | - | - | - |
| 1777937782 | 22.78° C | 27% | 1010.6 hPa | 1.78 mm | - | - | - |
| 1777937482 | 22.78° C | 29% | 1010.6 hPa | 1.78 mm | - | - | - |
| 1777937182 | 22.78° C | 32% | 1010.8 hPa | 1.78 mm | - | - | - |
| 1777936881 | 22.78° C | 36% | 1010.6 hPa | 1.78 mm | - | - | - |
| 1777936581 | 22.22° C | 38% | 1010.8 hPa | 1.78 mm | - | - | - |
| 1777936281 | 22.78° C | 40% | 1010.8 hPa | 1.78 mm | - | - | - |
* Rain since midnight (hover to see other rain measurements)
** Current wind speed in m/s (hover to see current wind gust speed)